sensor_id;sensor_type;location;lat;lon;timestamp;P1;durP1;ratioP1;P2;durP2;ratioP2
57893;SDS011;43710;47.460;19.034;2023-07-13T04:43:34;5.93;;;3.75;;
57893;SDS011;43710;47.460;19.034;2023-07-13T04:46:37;7.03;;;3.35;;
57893;SDS011;43710;47.460;19.034;2023-07-13T04:49:40;15.80;;;4.03;;
57893;SDS011;43710;47.460;19.034;2023-07-13T04:52:42;8.40;;;3.70;;
57893;SDS011;43710;47.460;19.034;2023-07-13T04:55:44;8.05;;;3.10;;
57893;SDS011;43710;47.460;19.034;2023-07-13T04:58:48;7.90;;;3.22;;
57893;SDS011;43710;47.460;19.034;2023-07-13T05:01:50;8.32;;;3.80;;
57893;SDS011;43710;47.460;19.034;2023-07-13T05:04:53;7.72;;;3.92;;
57893;SDS011;43710;47.460;19.034;2023-07-13T05:07:57;10.38;;;3.85;;
57893;SDS011;43710;47.460;19.034;2023-07-13T05:11:00;5.50;;;2.97;;
57893;SDS011;43710;47.460;19.034;2023-07-13T05:14:03;8.35;;;3.53;;
57893;SDS011;43710;47.460;19.034;2023-07-13T05:17:06;7.30;;;3.75;;
57893;SDS011;43710;47.460;19.034;2023-07-13T05:20:08;8.70;;;3.60;;
57893;SDS011;43710;47.460;19.034;2023-07-13T05:23:12;7.90;;;4.32;;
57893;SDS011;43710;47.460;19.034;2023-07-13T05:26:14;7.95;;;3.90;;
57893;SDS011;43710;47.460;19.034;2023-07-13T05:29:17;5.85;;;3.40;;
57893;SDS011;43710;47.460;19.034;2023-07-13T05:32:19;6.20;;;3.42;;
57893;SDS011;43710;47.460;19.034;2023-07-13T05:35:22;7.05;;;3.60;;
57893;SDS011;43710;47.460;19.034;2023-07-13T05:38:24;7.87;;;3.37;;
57893;SDS011;43710;47.460;19.034;2023-07-13T05:41:26;8.65;;;3.80;;
57893;SDS011;43710;47.460;19.034;2023-07-13T05:44:31;4.45;;;2.55;;
57893;SDS011;43710;47.460;19.034;2023-07-13T05:47:33;5.45;;;2.53;;
57893;SDS011;43710;47.460;19.034;2023-07-13T05:50:36;6.65;;;2.75;;
57893;SDS011;43710;47.460;19.034;2023-07-13T05:53:39;5.05;;;2.55;;
57893;SDS011;43710;47.460;19.034;2023-07-13T05:56:42;3.90;;;1.85;;
57893;SDS011;43710;47.460;19.034;2023-07-13T05:59:44;3.60;;;2.15;;
57893;SDS011;43710;47.460;19.034;2023-07-13T06:02:46;3.37;;;2.12;;
57893;SDS011;43710;47.460;19.034;2023-07-13T06:05:49;7.43;;;2.60;;
57893;SDS011;43710;47.460;19.034;2023-07-13T06:08:52;4.85;;;2.25;;
57893;SDS011;43710;47.460;19.034;2023-07-13T06:11:55;4.35;;;2.15;;
57893;SDS011;43710;47.460;19.034;2023-07-13T06:14:57;2.80;;;2.00;;
57893;SDS011;43710;47.460;19.034;2023-07-13T06:18:00;6.28;;;1.87;;
57893;SDS011;43710;47.460;19.034;2023-07-13T06:21:06;4.12;;;2.30;;
57893;SDS011;43710;47.460;19.034;2023-07-13T06:24:11;5.70;;;2.30;;
57893;SDS011;43710;47.460;19.034;2023-07-13T06:27:13;4.43;;;2.10;;
57893;SDS011;43710;47.460;19.034;2023-07-13T06:30:15;4.10;;;2.20;;
57893;SDS011;43710;47.460;19.034;2023-07-13T06:33:17;3.08;;;1.95;;
57893;SDS011;43710;47.460;19.034;2023-07-13T06:36:20;2.90;;;1.87;;
57893;SDS011;43710;47.460;19.034;2023-07-13T06:39:22;4.70;;;2.40;;
57893;SDS011;43710;47.460;19.034;2023-07-13T06:42:24;4.68;;;2.40;;
57893;SDS011;43710;47.460;19.034;2023-07-13T06:45:27;5.65;;;2.40;;
57893;SDS011;43710;47.460;19.034;2023-07-13T06:48:29;4.72;;;2.30;;
57893;SDS011;43710;47.460;19.034;2023-07-13T06:51:32;6.35;;;2.25;;
57893;SDS011;43710;47.460;19.034;2023-07-13T06:54:34;3.72;;;2.20;;
57893;SDS011;43710;47.460;19.034;2023-07-13T07:09:59;5.68;;;1.98;;
57893;SDS011;43710;47.460;19.034;2023-07-13T07:13:02;6.32;;;2.25;;
57893;SDS011;43710;47.460;19.034;2023-07-13T07:16:05;4.57;;;2.28;;
57893;SDS011;43710;47.460;19.034;2023-07-13T07:19:07;3.65;;;2.65;;
57893;SDS011;43710;47.460;19.034;2023-07-13T07:22:09;3.60;;;2.40;;
57893;SDS011;43710;47.460;19.034;2023-07-13T07:25:12;3.60;;;2.75;;
57893;SDS011;43710;47.460;19.034;2023-07-13T07:28:15;6.25;;;2.65;;
57893;SDS011;43710;47.460;19.034;2023-07-13T07:31:24;5.07;;;2.87;;
57893;SDS011;43710;47.460;19.034;2023-07-13T07:34:30;5.57;;;3.20;;
57893;SDS011;43710;47.460;19.034;2023-07-13T07:37:32;5.68;;;2.90;;
57893;SDS011;43710;47.460;19.034;2023-07-13T07:40:38;4.62;;;2.72;;
57893;SDS011;43710;47.460;19.034;2023-07-13T07:43:45;4.65;;;2.70;;
57893;SDS011;43710;47.460;19.034;2023-07-13T07:46:47;4.28;;;2.60;;
57893;SDS011;43710;47.460;19.034;2023-07-13T07:49:50;4.35;;;2.22;;
57893;SDS011;43710;47.460;19.034;2023-07-13T07:52:53;6.28;;;2.78;;
57893;SDS011;43710;47.460;19.034;2023-07-13T07:55:55;7.93;;;2.65;;
57893;SDS011;43710;47.460;19.034;2023-07-13T08:03:32;3.37;;;2.65;;
57893;SDS011;43710;47.460;19.034;2023-07-13T08:06:39;4.65;;;2.50;;
57893;SDS011;43710;47.460;19.034;2023-07-13T08:09:46;4.15;;;2.28;;
57893;SDS011;43710;47.460;19.034;2023-07-13T08:12:49;4.30;;;2.80;;
57893;SDS011;43710;47.460;19.034;2023-07-13T08:15:55;4.43;;;2.60;;
57893;SDS011;43710;47.460;19.034;2023-07-13T08:18:57;7.90;;;2.53;;
57893;SDS011;43710;47.460;19.034;2023-07-13T08:21:59;4.37;;;2.72;;
57893;SDS011;43710;47.460;19.034;2023-07-13T08:25:02;6.50;;;3.47;;
57893;SDS011;43710;47.460;19.034;2023-07-13T08:28:04;5.03;;;2.72;;
57893;SDS011;43710;47.460;19.034;2023-07-13T08:31:07;4.53;;;2.80;;
57893;SDS011;43710;47.460;19.034;2023-07-13T08:34:09;3.62;;;2.60;;
57893;SDS011;43710;47.460;19.034;2023-07-13T08:37:12;4.40;;;2.70;;
57893;SDS011;43710;47.460;19.034;2023-07-13T08:40:15;4.20;;;3.03;;
57893;SDS011;43710;47.460;19.034;2023-07-13T08:43:33;3.55;;;2.60;;
57893;SDS011;43710;47.460;19.034;2023-07-13T08:46:38;3.90;;;2.70;;
57893;SDS011;43710;47.460;19.034;2023-07-13T08:49:44;4.55;;;2.87;;
57893;SDS011;43710;47.460;19.034;2023-07-13T08:52:46;3.15;;;2.42;;
57893;SDS011;43710;47.460;19.034;2023-07-13T08:55:50;5.35;;;2.58;;
57893;SDS011;43710;47.460;19.034;2023-07-13T08:59:02;4.80;;;2.25;;
57893;SDS011;43710;47.460;19.034;2023-07-13T09:05:41;4.15;;;2.60;;
57893;SDS011;43710;47.460;19.034;2023-07-13T09:08:47;4.18;;;2.80;;
57893;SDS011;43710;47.460;19.034;2023-07-13T09:15:41;5.53;;;2.92;;
57893;SDS011;43710;47.460;19.034;2023-07-13T09:18:47;4.82;;;2.60;;
57893;SDS011;43710;47.460;19.034;2023-07-13T09:25:00;3.37;;;2.58;;
57893;SDS011;43710;47.460;19.034;2023-07-13T09:31:26;5.25;;;3.00;;
57893;SDS011;43710;47.460;19.034;2023-07-13T09:34:36;6.10;;;2.95;;
57893;SDS011;43710;47.460;19.034;2023-07-13T09:37:38;4.60;;;2.80;;
57893;SDS011;43710;47.460;19.034;2023-07-13T09:40:53;5.18;;;3.00;;
57893;SDS011;43710;47.460;19.034;2023-07-13T09:44:10;4.18;;;2.83;;
57893;SDS011;43710;47.460;19.034;2023-07-13T09:47:18;5.28;;;2.95;;
57893;SDS011;43710;47.460;19.034;2023-07-13T09:50:25;4.45;;;2.95;;
57893;SDS011;43710;47.460;19.034;2023-07-13T09:57:48;6.40;;;3.25;;
57893;SDS011;43710;47.460;19.034;2023-07-13T10:01:10;4.28;;;2.97;;
57893;SDS011;43710;47.460;19.034;2023-07-13T10:09:17;3.95;;;3.25;;
57893;SDS011;43710;47.460;19.034;2023-07-13T10:12:21;4.75;;;3.03;;
57893;SDS011;43710;47.460;19.034;2023-07-13T10:15:27;6.85;;;2.92;;
57893;SDS011;43710;47.460;19.034;2023-07-13T10:18:29;4.53;;;3.37;;
57893;SDS011;43710;47.460;19.034;2023-07-13T10:21:49;3.70;;;2.83;;
57893;SDS011;43710;47.460;19.034;2023-07-13T10:24:57;4.00;;;2.80;;
57893;SDS011;43710;47.460;19.034;2023-07-13T10:28:04;3.20;;;2.40;;
57893;SDS011;43710;47.460;19.034;2023-07-13T10:31:18;5.60;;;3.08;;
57893;SDS011;43710;47.460;19.034;2023-07-13T10:34:21;4.72;;;3.03;;
57893;SDS011;43710;47.460;19.034;2023-07-13T10:37:26;3.72;;;2.62;;
57893;SDS011;43710;47.460;19.034;2023-07-13T10:40:37;4.70;;;2.53;;
57893;SDS011;43710;47.460;19.034;2023-07-13T10:44:03;3.30;;;2.65;;
57893;SDS011;43710;47.460;19.034;2023-07-13T10:47:15;5.87;;;3.00;;
57893;SDS011;43710;47.460;19.034;2023-07-13T10:50:21;3.17;;;2.55;;
57893;SDS011;43710;47.460;19.034;2023-07-13T10:53:31;4.68;;;2.72;;
57893;SDS011;43710;47.460;19.034;2023-07-13T10:56:35;3.58;;;2.90;;
57893;SDS011;43710;47.460;19.034;2023-07-13T10:59:37;4.32;;;2.62;;
57893;SDS011;43710;47.460;19.034;2023-07-13T11:02:40;3.87;;;2.55;;
57893;SDS011;43710;47.460;19.034;2023-07-13T11:05:42;4.55;;;2.42;;
57893;SDS011;43710;47.460;19.034;2023-07-13T11:11:50;4.72;;;2.30;;
57893;SDS011;43710;47.460;19.034;2023-07-13T11:18:01;3.47;;;2.10;;
57893;SDS011;43710;47.460;19.034;2023-07-13T11:21:12;3.20;;;2.17;;
57893;SDS011;43710;47.460;19.034;2023-07-13T11:28:25;3.12;;;2.35;;
57893;SDS011;43710;47.460;19.034;2023-07-13T11:31:31;2.58;;;2.17;;
57893;SDS011;43710;47.460;19.034;2023-07-13T11:34:36;3.55;;;2.05;;
57893;SDS011;43710;47.460;19.034;2023-07-13T11:37:40;3.33;;;2.30;;
57893;SDS011;43710;47.460;19.034;2023-07-13T11:40:44;4.50;;;2.33;;
57893;SDS011;43710;47.460;19.034;2023-07-13T11:43:53;4.30;;;2.00;;
57893;SDS011;43710;47.460;19.034;2023-07-13T11:46:58;3.05;;;2.00;;
57893;SDS011;43710;47.460;19.034;2023-07-13T11:50:16;6.32;;;2.40;;
57893;SDS011;43710;47.460;19.034;2023-07-13T11:57:51;7.28;;;2.58;;
57893;SDS011;43710;47.460;19.034;2023-07-13T12:01:03;3.30;;;2.30;;
57893;SDS011;43710;47.460;19.034;2023-07-13T12:04:11;2.60;;;2.33;;
57893;SDS011;43710;47.460;19.034;2023-07-13T12:07:23;4.00;;;2.42;;
57893;SDS011;43710;47.460;19.034;2023-07-13T12:10:27;3.67;;;2.45;;
57893;SDS011;43710;47.460;19.034;2023-07-13T12:13:37;4.90;;;2.67;;
57893;SDS011;43710;47.460;19.034;2023-07-13T12:16:41;5.28;;;2.92;;
57893;SDS011;43710;47.460;19.034;2023-07-13T12:19:44;3.58;;;2.53;;
57893;SDS011;43710;47.460;19.034;2023-07-13T12:22:48;3.70;;;2.72;;
57893;SDS011;43710;47.460;19.034;2023-07-13T12:25:52;5.37;;;2.70;;
57893;SDS011;43710;47.460;19.034;2023-07-13T12:28:55;4.32;;;2.50;;
57893;SDS011;43710;47.460;19.034;2023-07-13T12:36:25;3.35;;;2.87;;
57893;SDS011;43710;47.460;19.034;2023-07-13T12:39:35;4.75;;;2.70;;
57893;SDS011;43710;47.460;19.034;2023-07-13T12:42:39;4.60;;;2.37;;
57893;SDS011;43710;47.460;19.034;2023-07-13T12:46:01;4.07;;;2.85;;
57893;SDS011;43710;47.460;19.034;2023-07-13T12:49:06;6.22;;;2.80;;
57893;SDS011;43710;47.460;19.034;2023-07-13T12:52:21;4.32;;;2.90;;
57893;SDS011;43710;47.460;19.034;2023-07-13T12:55:30;5.97;;;3.55;;
57893;SDS011;43710;47.460;19.034;2023-07-13T12:58:36;4.82;;;2.90;;
57893;SDS011;43710;47.460;19.034;2023-07-13T13:01:40;5.07;;;3.30;;
57893;SDS011;43710;47.460;19.034;2023-07-13T13:04:43;5.72;;;2.70;;
57893;SDS011;43710;47.460;19.034;2023-07-13T13:07:46;5.25;;;3.00;;
57893;SDS011;43710;47.460;19.034;2023-07-13T13:10:49;6.35;;;2.95;;
57893;SDS011;43710;47.460;19.034;2023-07-13T13:13:51;4.78;;;3.10;;
57893;SDS011;43710;47.460;19.034;2023-07-13T13:16:54;5.40;;;2.83;;
57893;SDS011;43710;47.460;19.034;2023-07-13T13:19:57;4.85;;;2.97;;
57893;SDS011;43710;47.460;19.034;2023-07-13T13:22:59;5.75;;;3.00;;
57893;SDS011;43710;47.460;19.034;2023-07-13T13:26:02;4.10;;;3.17;;
57893;SDS011;43710;47.460;19.034;2023-07-13T13:29:15;5.50;;;2.65;;
57893;SDS011;43710;47.460;19.034;2023-07-13T13:32:19;4.13;;;3.00;;
57893;SDS011;43710;47.460;19.034;2023-07-13T13:35:22;4.12;;;2.65;;
57893;SDS011;43710;47.460;19.034;2023-07-13T13:38:26;5.43;;;2.78;;
57893;SDS011;43710;47.460;19.034;2023-07-13T13:41:29;5.43;;;2.60;;
57893;SDS011;43710;47.460;19.034;2023-07-13T13:44:31;4.50;;;2.62;;
57893;SDS011;43710;47.460;19.034;2023-07-13T13:47:34;9.60;;;3.30;;
57893;SDS011;43710;47.460;19.034;2023-07-13T13:50:38;3.70;;;2.40;;
57893;SDS011;43710;47.460;19.034;2023-07-13T13:53:41;3.60;;;2.45;;
57893;SDS011;43710;47.460;19.034;2023-07-13T13:56:43;4.35;;;2.50;;
57893;SDS011;43710;47.460;19.034;2023-07-13T13:59:47;3.67;;;2.70;;
57893;SDS011;43710;47.460;19.034;2023-07-13T14:02:49;3.17;;;2.47;;
57893;SDS011;43710;47.460;19.034;2023-07-13T14:05:53;3.78;;;2.42;;
57893;SDS011;43710;47.460;19.034;2023-07-13T14:08:57;3.20;;;2.70;;
